CW6596 Weather Reports


Display with metric or nautical units.
time (UTC)temp
F
wind
direction
speed
MPH
gust
MPH
rain 1hr
in
rain 24hr
in
rain mn
in
humidity
%
barometer
mb
20210926080143 61 66 5.0 9.0 0.00 1.75 0.01 97 1009.1
20210926074627 61 60 3.0 9.0 0.00 2.09 0.01 97 1009.2
20210926073207 61 33 4.0 7.0 0.00 2.09 0.01 97 1009.3
20210926071636 61 74 1.0 5.0 0.00 2.09 0.01 97 1009.7
20210926070106 62 79 2.0 6.0 0.00 2.09 0.01 97 1009.9
20210926064547 62 88 3.0 6.0 0.01 2.19 0.01 97 1010.2
20210926063107 62 87 2.0 6.0 0.01 2.19 0.01 97 1010.6
20210926061549 63 110 2.0 5.0 0.01 2.19 0.01 97 1010.9
20210926060049 64 94 4.0 10.0 0.01 2.19 0.01 97 1011.2
20210926054529 64 133 5.0 14.0 0.00 2.18 0.00 97 1011.1
20210926053023 65 111 7.0 13.0 0.00 2.18 0.00 97 1011.3
20210926051551 65 126 7.0 13.0 0.00 2.18 0.00 97 1011.4
20210926050046 64 189 5.0 12.0 0.00 2.18 0.00 97 1011.7
20210926044621 65 90 5.0 12.0 0.00 2.18 2.18 97 1012.0
20210926043027 64 137 5.0 13.0 0.00 2.18 2.18 97 1012.3
20210926041514 64 101 6.0 10.0 0.00 2.18 2.18 97 1012.4
20210926040012 65 96 5.0 13.0 0.00 2.18 2.18 97 1012.6
20210926034537 64 85 7.0 13.0 0.00 2.18 2.18 97 1012.7
20210926033009 64 143 8.0 15.0 0.00 2.18 2.18 97 1012.7
20210926031520 64 122 7.0 12.0 0.00 2.18 2.18 97 1012.8
20210926030012 64 116 7.0 14.0 0.00 2.18 2.18 97 1013.0
20210926024504 64 118 7.0 13.0 0.00 2.18 2.18 97 1013.1
20210926023011 63 191 5.0 11.0 0.00 2.18 2.18 97 1013.2
20210926021505 63 143 6.0 11.0 0.00 2.18 2.18 97 1013.4
20210926020133 64 106 5.0 10.0 0.00 2.18 2.18 97 1013.4
20210926013113 64 134 3.0 6.0 0.00 2.18 2.18 97 1013.5
20210926011811 64 131 2.0 7.0 0.00 2.18 2.18 96 1013.6
20210926010139 64 185 2.0 6.0 0.00 2.18 2.18 96 1013.7
20210926004631 64 193 3.0 7.0 0.01 2.18 2.18 96 1014.0
20210926003128 64 137 4.0 7.0 0.08 2.18 2.18 97 1014.0
20210926001651 64 142 3.0 9.0 0.30 2.18 2.18 96 1014.1
20210926000144 65 120 3.0 9.0 0.62 2.18 2.18 96 1014.3
20210925234743 64 129 5.0 9.0 1.03 2.17 2.17 96 1014.4
20210925233144 64 143 5.0 8.0 0.98 2.10 2.10 97 1014.6
20210925231637 64 126 2.0 6.0 0.76 1.88 1.88 97 1014.5
20210925230108 63 87 1.0 3.0 0.60 1.54 1.54 96 1014.6
20210925224550 63 136 0.0 4.0 0.20 1.13 1.13 96 1014.6
20210925223054 63 85 0.0 4.0 0.18 1.12 1.12 96 1014.4
20210925221619 63 94 3.0 5.0 0.18 1.12 1.12 96 1014.4
20210925220110 63 72 2.0 4.0 0.01 0.94 0.94 96 1014.4
20210925214647 63 90 4.0 6.0 0.05 0.94 0.94 96 1014.6
20210925213054 63 62 0.0 0.0 0.05 0.94 0.94 96 1014.7
20210925211621 62 62 1.0 4.0 0.06 0.94 0.94 96 1014.8
20210925210141 62 67 0.0 3.0 0.05 0.93 0.93 96 1014.9
20210925204638 62 87 1.0 4.0 0.01 0.89 0.89 96 1014.9
20210925203054 62 95 3.0 7.0 0.01 0.89 0.89 96 1015.0
20210925201607 62 91 5.0 8.0 0.00 0.88 0.88 96 1015.1
20210925200042 63 74 5.0 9.0 0.00 0.88 0.88 96 1015.2
20210925194537 65 194 1.0 3.0 0.00 0.88 0.88 96 1015.3
20210925193041 66 199 1.0 7.0 0.02 0.88 0.88 96 1015.4
20210925191549 66 196 4.0 8.0 0.11 0.88 0.88 96 1015.5
20210925190049 66 88 1.0 3.0 0.11 0.88 0.88 96 1015.5
20210925184554 66 108 0.0 2.0 0.12 0.89 0.88 96 1015.6
20210925183130 65 108 0.0 3.0 0.10 0.87 0.86 96 1015.8
20210925181555 65 72 0.0 3.0 0.01 0.78 0.77 96 1016.0
20210925180101 65 51 1.0 4.0 0.01 0.78 0.77 96 1016.1
20210925174558 64 89 0.0 5.0 0.01 0.77 0.76 96 1016.4
20210925173056 65 75 3.0 6.0 0.01 0.77 0.76 96 1016.5
20210925171552 65 83 0.0 4.0 0.02 0.77 0.76 96 1016.7
20210925170036 66 89 2.0 5.0 0.04 0.77 0.76 96 1016.9
20210925164521 65 64 4.0 7.0 0.09 0.76 0.75 96 1016.9
20210925163017 65 90 4.0 7.0 0.12 0.76 0.75 96 1016.9
20210925161535 65 101 3.0 5.0 0.11 0.75 0.74 96 1017.2
20210925160025 65 74 0.0 4.0 0.10 0.73 0.72 96 1017.1
20210925154520 66 57 0.0 3.0 0.04 0.67 0.66 96 1017.2
20210925153029 67 272 0.0 1.0 0.01 0.64 0.63 96 1017.2
20210925151512 66 273 0.0 0.0 0.01 0.64 0.63 96 1017.3
20210925150016 66 273 0.0 2.0 0.00 0.63 0.62 96 1017.5
20210925144510 65 262 0.0 5.0 0.00 0.63 0.62 96 1017.5
20210925143012 65 88 0.0 0.0 0.00 0.63 0.62 96 1017.4
20210925141509 64 88 0.0 0.0 0.00 0.63 0.62 96 1017.6
20210925140013 64 83 0.0 4.0 0.01 0.63 0.62 96 1017.6
20210925134509 65 77 0.0 1.0 0.03 0.63 0.62 96 1017.6
20210925133027 63 77 0.0 0.0 0.07 0.63 0.62 96 1017.6
20210925131510 63 77 0.0 1.0 0.15 0.63 0.62 96 1017.6
20210925130010 63 65 0.0 3.0 0.15 0.62 0.61 96 1017.4
20210925124505 62 83 0.0 3.0 0.13 0.60 0.59 96 1017.4
20210925123007 62 124 0.0 4.0 0.09 0.56 0.55 96 1017.7
20210925121502 63 93 0.0 0.0 0.01 0.48 0.47 96 1017.8
20210925120002 63 93 1.0 5.0 0.01 0.47 0.46 96 1017.5
20210925114504 63 10 2.0 5.0 0.01 0.47 0.46 96 1017.2
20210925111705 62 276 0.0 3.0 0.01 0.47 0.46 96 1017.4
20210925110115 62 115 0.0 1.0 0.00 0.46 0.45 96 1017.3
20210925104635 62 210 0.0 2.0 0.00 0.48 0.45 96 1017.0
20210925103103 62 211 0.0 3.0 0.00 0.48 0.45 96 1017.2
20210925101620 62 209 3.0 9.0 0.00 0.48 0.45 96 1017.4
20210925100141 63 141 3.0 9.0 0.00 0.48 0.45 96 1017.1
20210925094748 63 193 3.0 7.0 0.00 0.49 0.45 96 1017.0
20210925093142 63 143 3.0 7.0 0.00 0.49 0.45 96 1017.0
20210925091616 63 143 3.0 6.0 0.00 0.49 0.45 96 1017.1
20210925090108 63 139 4.0 8.0 0.01 0.49 0.45 96 1017.3
20210925084558 63 143 4.0 8.0 0.01 0.49 0.45 96 1017.2
20210925083107 63 103 4.0 8.0 0.03 0.49 0.45 96 1017.2
20210925081601 63 137 5.0 10.0 0.16 0.49 0.45 96 1017.2